sensor_id;sensor_type;location;lat;lon;timestamp;temperature;humidity
38788;DHT22;24536;45.488;12.238;2022-07-23T00:00:53;31.20;57.20
38788;DHT22;24536;45.488;12.238;2022-07-23T00:03:18;31.10;57.50
38788;DHT22;24536;45.488;12.238;2022-07-23T00:05:44;31.10;57.50
38788;DHT22;24536;45.488;12.238;2022-07-23T00:08:10;31.10;57.70
38788;DHT22;24536;45.488;12.238;2022-07-23T00:10:36;31.10;57.90
38788;DHT22;24536;45.488;12.238;2022-07-23T00:13:02;31.10;58.20
38788;DHT22;24536;45.488;12.238;2022-07-23T00:15:27;31.00;58.30
38788;DHT22;24536;45.488;12.238;2022-07-23T00:17:53;31.10;58.40
38788;DHT22;24536;45.488;12.238;2022-07-23T00:20:19;31.00;58.40
38788;DHT22;24536;45.488;12.238;2022-07-23T00:22:53;31.10;58.70
38788;DHT22;24536;45.488;12.238;2022-07-23T00:25:20;31.00;59.00
38788;DHT22;24536;45.488;12.238;2022-07-23T00:27:46;31.00;59.20
38788;DHT22;24536;45.488;12.238;2022-07-23T00:30:12;31.00;59.50
38788;DHT22;24536;45.488;12.238;2022-07-23T00:35:13;31.00;60.90
38788;DHT22;24536;45.488;12.238;2022-07-23T00:37:39;31.00;61.60
38788;DHT22;24536;45.488;12.238;2022-07-23T00:40:05;31.00;62.50
38788;DHT22;24536;45.488;12.238;2022-07-23T00:42:32;31.00;63.30
38788;DHT22;24536;45.488;12.238;2022-07-23T00:44:58;31.00;63.50
38788;DHT22;24536;45.488;12.238;2022-07-23T00:47:23;30.90;63.70
38788;DHT22;24536;45.488;12.238;2022-07-23T00:49:49;30.90;64.00
38788;DHT22;24536;45.488;12.238;2022-07-23T00:52:15;30.90;64.30
38788;DHT22;24536;45.488;12.238;2022-07-23T00:54:41;30.90;64.50
38788;DHT22;24536;45.488;12.238;2022-07-23T00:57:07;30.80;64.50
38788;DHT22;24536;45.488;12.238;2022-07-23T00:59:33;30.80;64.50
38788;DHT22;24536;45.488;12.238;2022-07-23T01:01:58;30.80;64.70
38788;DHT22;24536;45.488;12.238;2022-07-23T01:04:24;30.70;64.70
38788;DHT22;24536;45.488;12.238;2022-07-23T01:06:50;30.70;64.90
38788;DHT22;24536;45.488;12.238;2022-07-23T01:09:15;30.70;65.20
38788;DHT22;24536;45.488;12.238;2022-07-23T01:11:42;30.70;65.70
38788;DHT22;24536;45.488;12.238;2022-07-23T01:16:34;30.70;66.60
38788;DHT22;24536;45.488;12.238;2022-07-23T01:19:00;30.70;67.10
38788;DHT22;24536;45.488;12.238;2022-07-23T01:21:26;30.60;67.50
38788;DHT22;24536;45.488;12.238;2022-07-23T01:23:52;30.60;68.00
38788;DHT22;24536;45.488;12.238;2022-07-23T01:26:17;30.60;68.60
38788;DHT22;24536;45.488;12.238;2022-07-23T01:28:43;30.60;69.10
38788;DHT22;24536;45.488;12.238;2022-07-23T01:31:09;30.60;69.70
38788;DHT22;24536;45.488;12.238;2022-07-23T01:33:34;30.60;70.10
38788;DHT22;24536;45.488;12.238;2022-07-23T01:36:00;30.60;70.50
38788;DHT22;24536;45.488;12.238;2022-07-23T01:38:26;30.50;71.00
38788;DHT22;24536;45.488;12.238;2022-07-23T01:40:51;30.50;71.60
38788;DHT22;24536;45.488;12.238;2022-07-23T01:43:17;30.50;72.00
38788;DHT22;24536;45.488;12.238;2022-07-23T01:45:43;30.40;72.40
38788;DHT22;24536;45.488;12.238;2022-07-23T01:48:09;30.50;73.00
38788;DHT22;24536;45.488;12.238;2022-07-23T01:50:35;30.50;73.40
38788;DHT22;24536;45.488;12.238;2022-07-23T01:53:01;30.50;73.80
38788;DHT22;24536;45.488;12.238;2022-07-23T01:55:27;30.50;74.20
38788;DHT22;24536;45.488;12.238;2022-07-23T01:57:52;30.50;75.00
38788;DHT22;24536;45.488;12.238;2022-07-23T02:00:18;30.40;75.00
38788;DHT22;24536;45.488;12.238;2022-07-23T02:02:44;30.40;75.30
38788;DHT22;24536;45.488;12.238;2022-07-23T02:05:10;30.50;75.60
38788;DHT22;24536;45.488;12.238;2022-07-23T02:07:35;30.40;75.60
38788;DHT22;24536;45.488;12.238;2022-07-23T02:10:01;30.40;75.70
38788;DHT22;24536;45.488;12.238;2022-07-23T02:12:27;30.30;76.10
38788;DHT22;24536;45.488;12.238;2022-07-23T02:14:52;30.30;76.00
38788;DHT22;24536;45.488;12.238;2022-07-23T02:17:18;30.30;76.00
38788;DHT22;24536;45.488;12.238;2022-07-23T02:19:43;30.30;76.50
38788;DHT22;24536;45.488;12.238;2022-07-23T02:22:09;30.20;76.10
38788;DHT22;24536;45.488;12.238;2022-07-23T02:24:35;30.20;76.20
38788;DHT22;24536;45.488;12.238;2022-07-23T02:27:00;30.00;74.30
38788;DHT22;24536;45.488;12.238;2022-07-23T02:29:26;29.80;75.10
38788;DHT22;24536;45.488;12.238;2022-07-23T02:31:52;29.80;74.70
38788;DHT22;24536;45.488;12.238;2022-07-23T02:34:17;29.80;74.50
38788;DHT22;24536;45.488;12.238;2022-07-23T02:36:43;29.90;74.40
38788;DHT22;24536;45.488;12.238;2022-07-23T02:39:09;29.90;74.70
38788;DHT22;24536;45.488;12.238;2022-07-23T02:41:34;29.30;72.00
38788;DHT22;24536;45.488;12.238;2022-07-23T02:44:00;28.60;74.20
38788;DHT22;24536;45.488;12.238;2022-07-23T02:46:26;28.40;73.60
38788;DHT22;24536;45.488;12.238;2022-07-23T02:48:51;27.90;73.80
38788;DHT22;24536;45.488;12.238;2022-07-23T02:51:17;27.60;74.20
38788;DHT22;24536;45.488;12.238;2022-07-23T02:53:43;27.30;74.70
38788;DHT22;24536;45.488;12.238;2022-07-23T02:56:09;27.60;74.20
38788;DHT22;24536;45.488;12.238;2022-07-23T02:58:34;27.90;73.60
38788;DHT22;24536;45.488;12.238;2022-07-23T03:01:00;28.10;72.80
38788;DHT22;24536;45.488;12.238;2022-07-23T03:03:26;28.20;71.90
38788;DHT22;24536;45.488;12.238;2022-07-23T03:05:52;28.40;71.20
38788;DHT22;24536;45.488;12.238;2022-07-23T03:08:17;28.20;70.80
38788;DHT22;24536;45.488;12.238;2022-07-23T03:10:43;27.90;70.80
38788;DHT22;24536;45.488;12.238;2022-07-23T03:13:09;27.70;72.40
38788;DHT22;24536;45.488;12.238;2022-07-23T03:15:34;27.70;72.00
38788;DHT22;24536;45.488;12.238;2022-07-23T03:18:00;27.80;71.60
38788;DHT22;24536;45.488;12.238;2022-07-23T03:20:26;28.00;71.30
38788;DHT22;24536;45.488;12.238;2022-07-23T03:22:51;28.20;70.80
38788;DHT22;24536;45.488;12.238;2022-07-23T03:25:17;28.30;70.20
38788;DHT22;24536;45.488;12.238;2022-07-23T03:27:43;28.40;69.90
38788;DHT22;24536;45.488;12.238;2022-07-23T03:30:11;28.50;69.90
38788;DHT22;24536;45.488;12.238;2022-07-23T03:32:37;28.50;69.70
38788;DHT22;24536;45.488;12.238;2022-07-23T03:35:05;28.60;69.90
38788;DHT22;24536;45.488;12.238;2022-07-23T03:37:30;28.50;69.90
38788;DHT22;24536;45.488;12.238;2022-07-23T03:39:56;28.30;69.80
38788;DHT22;24536;45.488;12.238;2022-07-23T03:42:22;27.80;69.90
38788;DHT22;24536;45.488;12.238;2022-07-23T03:44:48;27.40;70.70
38788;DHT22;24536;45.488;12.238;2022-07-23T03:47:13;27.30;71.40
38788;DHT22;24536;45.488;12.238;2022-07-23T03:49:39;27.10;71.30
38788;DHT22;24536;45.488;12.238;2022-07-23T03:52:05;26.90;71.60
38788;DHT22;24536;45.488;12.238;2022-07-23T03:54:31;27.00;71.40
38788;DHT22;24536;45.488;12.238;2022-07-23T03:56:57;27.30;71.00
38788;DHT22;24536;45.488;12.238;2022-07-23T03:59:22;27.50;70.50
38788;DHT22;24536;45.488;12.238;2022-07-23T04:01:48;27.60;70.10
38788;DHT22;24536;45.488;12.238;2022-07-23T04:04:14;27.80;69.70
38788;DHT22;24536;45.488;12.238;2022-07-23T04:06:39;27.90;69.50
38788;DHT22;24536;45.488;12.238;2022-07-23T04:09:05;28.00;69.20
38788;DHT22;24536;45.488;12.238;2022-07-23T04:11:31;28.10;69.40
38788;DHT22;24536;45.488;12.238;2022-07-23T04:13:56;28.10;69.10
38788;DHT22;24536;45.488;12.238;2022-07-23T04:16:22;28.10;69.10
38788;DHT22;24536;45.488;12.238;2022-07-23T04:18:48;28.10;69.20
38788;DHT22;24536;45.488;12.238;2022-07-23T04:21:13;28.20;69.00
38788;DHT22;24536;45.488;12.238;2022-07-23T04:23:39;28.20;69.00
38788;DHT22;24536;45.488;12.238;2022-07-23T04:26:05;28.30;69.20
38788;DHT22;24536;45.488;12.238;2022-07-23T04:28:30;28.40;69.20
38788;DHT22;24536;45.488;12.238;2022-07-23T04:30:57;28.40;69.30
38788;DHT22;24536;45.488;12.238;2022-07-23T04:33:23;28.50;69.30
38788;DHT22;24536;45.488;12.238;2022-07-23T04:35:48;28.50;69.20
38788;DHT22;24536;45.488;12.238;2022-07-23T04:38:14;28.50;69.00
38788;DHT22;24536;45.488;12.238;2022-07-23T04:40:40;28.50;69.20
38788;DHT22;24536;45.488;12.238;2022-07-23T04:43:05;28.60;69.00
38788;DHT22;24536;45.488;12.238;2022-07-23T04:45:31;28.60;69.10
38788;DHT22;24536;45.488;12.238;2022-07-23T04:47:57;28.60;69.30
38788;DHT22;24536;45.488;12.238;2022-07-23T04:50:23;28.60;69.20
38788;DHT22;24536;45.488;12.238;2022-07-23T04:52:49;28.60;69.10
38788;DHT22;24536;45.488;12.238;2022-07-23T04:55:15;28.60;69.00
38788;DHT22;24536;45.488;12.238;2022-07-23T04:57:41;28.60;68.40
38788;DHT22;24536;45.488;12.238;2022-07-23T05:00:07;28.30;67.90
38788;DHT22;24536;45.488;12.238;2022-07-23T05:02:33;27.90;68.40
38788;DHT22;24536;45.488;12.238;2022-07-23T05:04:59;27.60;69.60
38788;DHT22;24536;45.488;12.238;2022-07-23T05:07:25;27.30;70.10
38788;DHT22;24536;45.488;12.238;2022-07-23T05:09:50;27.10;70.40
38788;DHT22;24536;45.488;12.238;2022-07-23T05:12:16;27.00;70.60
38788;DHT22;24536;45.488;12.238;2022-07-23T05:14:42;26.90;71.90
38788;DHT22;24536;45.488;12.238;2022-07-23T05:17:08;27.00;71.50
38788;DHT22;24536;45.488;12.238;2022-07-23T05:19:34;27.20;71.00
38788;DHT22;24536;45.488;12.238;2022-07-23T05:22:00;27.30;70.90
38788;DHT22;24536;45.488;12.238;2022-07-23T05:24:26;27.50;70.60
38788;DHT22;24536;45.488;12.238;2022-07-23T05:26:52;27.60;70.60
38788;DHT22;24536;45.488;12.238;2022-07-23T05:29:17;27.50;72.30
38788;DHT22;24536;45.488;12.238;2022-07-23T05:31:43;27.40;72.80
38788;DHT22;24536;45.488;12.238;2022-07-23T05:34:09;27.20;74.30
38788;DHT22;24536;45.488;12.238;2022-07-23T05:36:35;27.30;73.00
38788;DHT22;24536;45.488;12.238;2022-07-23T05:39:00;27.50;72.70
38788;DHT22;24536;45.488;12.238;2022-07-23T05:41:26;27.70;72.50
38788;DHT22;24536;45.488;12.238;2022-07-23T05:43:52;27.80;73.20
38788;DHT22;24536;45.488;12.238;2022-07-23T05:46:19;27.80;72.80
38788;DHT22;24536;45.488;12.238;2022-07-23T05:48:44;27.90;72.60
38788;DHT22;24536;45.488;12.238;2022-07-23T05:51:21;27.80;73.90
38788;DHT22;24536;45.488;12.238;2022-07-23T05:53:47;27.70;74.80
38788;DHT22;24536;45.488;12.238;2022-07-23T05:56:13;27.80;73.60
38788;DHT22;24536;45.488;12.238;2022-07-23T05:58:39;27.90;73.50
38788;DHT22;24536;45.488;12.238;2022-07-23T06:01:05;28.10;73.20
38788;DHT22;24536;45.488;12.238;2022-07-23T06:03:30;28.20;73.10
38788;DHT22;24536;45.488;12.238;2022-07-23T06:05:56;28.40;73.20
38788;DHT22;24536;45.488;12.238;2022-07-23T06:08:22;28.40;73.80
38788;DHT22;24536;45.488;12.238;2022-07-23T06:10:47;28.40;74.70
38788;DHT22;24536;45.488;12.238;2022-07-23T06:13:13;28.00;75.80
38788;DHT22;24536;45.488;12.238;2022-07-23T06:15:38;27.90;77.10
38788;DHT22;24536;45.488;12.238;2022-07-23T06:18:04;27.80;78.00
38788;DHT22;24536;45.488;12.238;2022-07-23T06:20:30;27.90;77.10
38788;DHT22;24536;45.488;12.238;2022-07-23T06:22:55;28.10;76.10
38788;DHT22;24536;45.488;12.238;2022-07-23T06:25:21;28.30;76.00
38788;DHT22;24536;45.488;12.238;2022-07-23T06:27:47;28.50;75.80
38788;DHT22;24536;45.488;12.238;2022-07-23T06:30:13;28.60;75.80
38788;DHT22;24536;45.488;12.238;2022-07-23T06:32:41;28.80;75.80
38788;DHT22;24536;45.488;12.238;2022-07-23T06:35:07;28.90;75.80
38788;DHT22;24536;45.488;12.238;2022-07-23T06:37:33;28.90;76.50
38788;DHT22;24536;45.488;12.238;2022-07-23T06:39:58;29.00;75.70
38788;DHT22;24536;45.488;12.238;2022-07-23T06:42:24;29.10;75.70
38788;DHT22;24536;45.488;12.238;2022-07-23T06:44:50;29.20;76.40
38788;DHT22;24536;45.488;12.238;2022-07-23T06:47:15;29.20;76.50
38788;DHT22;24536;45.488;12.238;2022-07-23T06:49:42;29.20;76.80
38788;DHT22;24536;45.488;12.238;2022-07-23T06:52:08;29.20;79.20
38788;DHT22;24536;45.488;12.238;2022-07-23T06:54:34;29.30;77.50
38788;DHT22;24536;45.488;12.238;2022-07-23T06:57:00;29.30;79.20
38788;DHT22;24536;45.488;12.238;2022-07-23T06:59:26;29.30;79.30
38788;DHT22;24536;45.488;12.238;2022-07-23T07:01:51;29.20;79.50
38788;DHT22;24536;45.488;12.238;2022-07-23T07:04:17;29.30;80.70
38788;DHT22;24536;45.488;12.238;2022-07-23T07:06:43;29.20;81.40
38788;DHT22;24536;45.488;12.238;2022-07-23T07:09:08;29.20;80.70
38788;DHT22;24536;45.488;12.238;2022-07-23T07:11:34;29.20;80.20
38788;DHT22;24536;45.488;12.238;2022-07-23T07:14:01;29.20;79.50
38788;DHT22;24536;45.488;12.238;2022-07-23T07:16:27;29.30;79.20
38788;DHT22;24536;45.488;12.238;2022-07-23T07:18:52;29.50;79.10
38788;DHT22;24536;45.488;12.238;2022-07-23T07:21:18;29.50;79.30
38788;DHT22;24536;45.488;12.238;2022-07-23T07:23:44;29.60;78.40
38788;DHT22;24536;45.488;12.238;2022-07-23T07:26:10;29.70;78.20
38788;DHT22;24536;45.488;12.238;2022-07-23T07:28:35;29.80;77.70
38788;DHT22;24536;45.488;12.238;2022-07-23T07:31:01;29.90;77.10
38788;DHT22;24536;45.488;12.238;2022-07-23T07:33:27;30.00;76.90
38788;DHT22;24536;45.488;12.238;2022-07-23T07:35:53;30.00;77.10
38788;DHT22;24536;45.488;12.238;2022-07-23T07:38:18;30.00;76.10
38788;DHT22;24536;45.488;12.238;2022-07-23T07:40:44;30.10;75.90
38788;DHT22;24536;45.488;12.238;2022-07-23T07:43:10;30.20;74.60
38788;DHT22;24536;45.488;12.238;2022-07-23T07:45:35;30.30;74.10
38788;DHT22;24536;45.488;12.238;2022-07-23T07:48:01;30.30;73.40
38788;DHT22;24536;45.488;12.238;2022-07-23T07:50:27;30.40;73.10
38788;DHT22;24536;45.488;12.238;2022-07-23T07:52:53;30.40;72.30
38788;DHT22;24536;45.488;12.238;2022-07-23T07:55:19;30.60;72.30
38788;DHT22;24536;45.488;12.238;2022-07-23T07:57:44;30.60;71.40
38788;DHT22;24536;45.488;12.238;2022-07-23T08:00:10;30.70;71.40
38788;DHT22;24536;45.488;12.238;2022-07-23T08:05:09;30.80;70.20
38788;DHT22;24536;45.488;12.238;2022-07-23T08:07:35;30.90;68.80
38788;DHT22;24536;45.488;12.238;2022-07-23T08:10:02;30.90;67.60
38788;DHT22;24536;45.488;12.238;2022-07-23T08:12:38;30.90;68.40
38788;DHT22;24536;45.488;12.238;2022-07-23T08:15:04;31.10;68.50
38788;DHT22;24536;45.488;12.238;2022-07-23T08:17:30;31.10;67.10
38788;DHT22;24536;45.488;12.238;2022-07-23T08:19:56;31.20;65.80
38788;DHT22;24536;45.488;12.238;2022-07-23T08:22:21;31.30;66.50
38788;DHT22;24536;45.488;12.238;2022-07-23T08:24:47;31.40;66.60
38788;DHT22;24536;45.488;12.238;2022-07-23T08:27:13;31.50;66.40
38788;DHT22;24536;45.488;12.238;2022-07-23T08:29:38;31.50;65.70
38788;DHT22;24536;45.488;12.238;2022-07-23T08:32:04;31.70;64.70
38788;DHT22;24536;45.488;12.238;2022-07-23T08:34:30;31.80;64.00
38788;DHT22;24536;45.488;12.238;2022-07-23T08:36:56;31.90;62.20
38788;DHT22;24536;45.488;12.238;2022-07-23T08:39:21;32.00;60.70
38788;DHT22;24536;45.488;12.238;2022-07-23T08:41:47;32.00;60.10
38788;DHT22;24536;45.488;12.238;2022-07-23T08:44:16;32.10;58.70
38788;DHT22;24536;45.488;12.238;2022-07-23T08:46:43;32.10;59.20
38788;DHT22;24536;45.488;12.238;2022-07-23T08:49:09;32.20;58.70
38788;DHT22;24536;45.488;12.238;2022-07-23T08:51:35;32.30;59.10
38788;DHT22;24536;45.488;12.238;2022-07-23T08:54:01;32.40;59.00
38788;DHT22;24536;45.488;12.238;2022-07-23T08:56:27;32.40;56.60
38788;DHT22;24536;45.488;12.238;2022-07-23T08:58:54;32.50;57.10
38788;DHT22;24536;45.488;12.238;2022-07-23T09:01:20;32.50;56.90
38788;DHT22;24536;45.488;12.238;2022-07-23T09:03:52;32.60;56.90
38788;DHT22;24536;45.488;12.238;2022-07-23T09:06:20;32.60;57.60
38788;DHT22;24536;45.488;12.238;2022-07-23T09:08:46;32.70;57.90
38788;DHT22;24536;45.488;12.238;2022-07-23T09:11:15;32.80;58.00
38788;DHT22;24536;45.488;12.238;2022-07-23T09:13:52;33.00;57.20
38788;DHT22;24536;45.488;12.238;2022-07-23T09:16:30;33.00;57.20
38788;DHT22;24536;45.488;12.238;2022-07-23T09:19:04;33.10;57.00
38788;DHT22;24536;45.488;12.238;2022-07-23T09:21:30;33.20;55.00
38788;DHT22;24536;45.488;12.238;2022-07-23T09:24:02;33.30;55.90
38788;DHT22;24536;45.488;12.238;2022-07-23T09:29:11;33.40;54.60
38788;DHT22;24536;45.488;12.238;2022-07-23T09:31:52;33.50;54.20
38788;DHT22;24536;45.488;12.238;2022-07-23T09:34:23;33.50;54.10
38788;DHT22;24536;45.488;12.238;2022-07-23T09:37:12;33.70;54.40
38788;DHT22;24536;45.488;12.238;2022-07-23T09:39:36;33.70;54.40
38788;DHT22;24536;45.488;12.238;2022-07-23T09:45:01;33.90;53.70
38788;DHT22;24536;45.488;12.238;2022-07-23T09:47:29;34.00;53.50
38788;DHT22;24536;45.488;12.238;2022-07-23T09:52:29;34.20;52.50
38788;DHT22;24536;45.488;12.238;2022-07-23T09:55:00;34.30;51.90
38788;DHT22;24536;45.488;12.238;2022-07-23T09:57:26;34.30;50.20
38788;DHT22;24536;45.488;12.238;2022-07-23T09:59:53;34.40;50.40
38788;DHT22;24536;45.488;12.238;2022-07-23T10:02:21;34.50;50.10
38788;DHT22;24536;45.488;12.238;2022-07-23T10:04:47;34.50;49.40
38788;DHT22;24536;45.488;12.238;2022-07-23T10:07:14;34.60;48.30
38788;DHT22;24536;45.488;12.238;2022-07-23T10:09:43;34.70;47.10
38788;DHT22;24536;45.488;12.238;2022-07-23T10:12:12;34.70;47.10
38788;DHT22;24536;45.488;12.238;2022-07-23T10:14:57;34.80;46.70
38788;DHT22;24536;45.488;12.238;2022-07-23T10:17:23;35.00;46.20
38788;DHT22;24536;45.488;12.238;2022-07-23T10:19:49;35.00;44.40
38788;DHT22;24536;45.488;12.238;2022-07-23T10:22:24;35.10;44.40
38788;DHT22;24536;45.488;12.238;2022-07-23T10:41:02;35.60;40.10
38788;DHT22;24536;45.488;12.238;2022-07-23T10:43:30;35.80;36.30
38788;DHT22;24536;45.488;12.238;2022-07-23T10:46:22;35.80;37.20
38788;DHT22;24536;45.488;12.238;2022-07-23T10:49:26;35.80;37.90
38788;DHT22;24536;45.488;12.238;2022-07-23T10:54:52;35.90;35.90
38788;DHT22;24536;45.488;12.238;2022-07-23T10:57:20;36.00;37.20
38788;DHT22;24536;45.488;12.238;2022-07-23T11:02:33;36.30;37.40
38788;DHT22;24536;45.488;12.238;2022-07-23T11:05:04;36.40;36.60
38788;DHT22;24536;45.488;12.238;2022-07-23T11:07:30;36.60;37.10
38788;DHT22;24536;45.488;12.238;2022-07-23T11:09:56;36.60;36.40
38788;DHT22;24536;45.488;12.238;2022-07-23T11:15:05;36.90;38.50
38788;DHT22;24536;45.488;12.238;2022-07-23T11:17:37;37.00;39.20
38788;DHT22;24536;45.488;12.238;2022-07-23T11:27:44;37.90;39.90
38788;DHT22;24536;45.488;12.238;2022-07-23T11:30:38;38.00;39.40
38788;DHT22;24536;45.488;12.238;2022-07-23T11:33:26;38.10;39.70
38788;DHT22;24536;45.488;12.238;2022-07-23T11:36:02;38.30;40.90
38788;DHT22;24536;45.488;12.238;2022-07-23T11:38:30;38.50;41.90
38788;DHT22;24536;45.488;12.238;2022-07-23T11:40:57;38.70;42.10
38788;DHT22;24536;45.488;12.238;2022-07-23T11:43:24;39.00;41.80
38788;DHT22;24536;45.488;12.238;2022-07-23T11:45:53;39.30;39.40
38788;DHT22;24536;45.488;12.238;2022-07-23T11:48:22;39.50;40.40
38788;DHT22;24536;45.488;12.238;2022-07-23T11:50:49;39.70;40.90
38788;DHT22;24536;45.488;12.238;2022-07-23T11:53:29;40.00;40.90
38788;DHT22;24536;45.488;12.238;2022-07-23T11:56:10;40.40;40.50
38788;DHT22;24536;45.488;12.238;2022-07-23T11:58:36;40.60;39.40
38788;DHT22;24536;45.488;12.238;2022-07-23T12:01:02;40.80;39.10
38788;DHT22;24536;45.488;12.238;2022-07-23T12:03:28;40.90;39.20
38788;DHT22;24536;45.488;12.238;2022-07-23T12:05:58;41.10;39.20
38788;DHT22;24536;45.488;12.238;2022-07-23T12:08:24;41.30;38.80
38788;DHT22;24536;45.488;12.238;2022-07-23T12:10:50;41.40;39.10
38788;DHT22;24536;45.488;12.238;2022-07-23T12:13:17;41.40;39.20
38788;DHT22;24536;45.488;12.238;2022-07-23T12:15:49;41.40;38.90
38788;DHT22;24536;45.488;12.238;2022-07-23T12:18:20;41.30;36.90
38788;DHT22;24536;45.488;12.238;2022-07-23T12:20:49;41.40;39.00
38788;DHT22;24536;45.488;12.238;2022-07-23T12:23:17;41.20;39.00
38788;DHT22;24536;45.488;12.238;2022-07-23T12:25:45;41.20;39.00
38788;DHT22;24536;45.488;12.238;2022-07-23T12:28:13;41.20;39.40
38788;DHT22;24536;45.488;12.238;2022-07-23T12:33:06;41.00;39.60
38788;DHT22;24536;45.488;12.238;2022-07-23T12:35:43;41.10;40.10
38788;DHT22;24536;45.488;12.238;2022-07-23T12:38:15;41.20;39.20
38788;DHT22;24536;45.488;12.238;2022-07-23T12:40:44;41.30;39.40
38788;DHT22;24536;45.488;12.238;2022-07-23T12:43:18;41.40;39.30
38788;DHT22;24536;45.488;12.238;2022-07-23T12:45:56;41.40;39.00
38788;DHT22;24536;45.488;12.238;2022-07-23T12:48:31;41.40;39.10
38788;DHT22;24536;45.488;12.238;2022-07-23T12:53:30;41.40;38.40
38788;DHT22;24536;45.488;12.238;2022-07-23T12:56:05;41.40;37.90
38788;DHT22;24536;45.488;12.238;2022-07-23T12:58:48;41.40;37.90
38788;DHT22;24536;45.488;12.238;2022-07-23T13:01:41;41.40;38.80
38788;DHT22;24536;45.488;12.238;2022-07-23T13:04:16;41.50;38.60
38788;DHT22;24536;45.488;12.238;2022-07-23T13:06:55;41.50;38.40
38788;DHT22;24536;45.488;12.238;2022-07-23T13:09:29;41.60;38.20
38788;DHT22;24536;45.488;12.238;2022-07-23T13:11:55;41.60;38.10
38788;DHT22;24536;45.488;12.238;2022-07-23T13:14:22;41.50;38.40
38788;DHT22;24536;45.488;12.238;2022-07-23T13:16:49;41.60;38.30
38788;DHT22;24536;45.488;12.238;2022-07-23T13:19:16;41.50;37.80
38788;DHT22;24536;45.488;12.238;2022-07-23T13:21:41;41.60;35.90
38788;DHT22;24536;45.488;12.238;2022-07-23T13:24:11;41.60;37.10
38788;DHT22;24536;45.488;12.238;2022-07-23T13:26:38;41.50;38.00
38788;DHT22;24536;45.488;12.238;2022-07-23T13:29:07;41.40;38.50
38788;DHT22;24536;45.488;12.238;2022-07-23T13:31:33;41.40;38.40
38788;DHT22;24536;45.488;12.238;2022-07-23T13:33:59;41.40;38.00
38788;DHT22;24536;45.488;12.238;2022-07-23T13:36:25;41.30;37.60
38788;DHT22;24536;45.488;12.238;2022-07-23T13:38:50;41.20;35.90
38788;DHT22;24536;45.488;12.238;2022-07-23T13:41:17;41.20;34.90
38788;DHT22;24536;45.488;12.238;2022-07-23T13:43:43;41.10;34.10
38788;DHT22;24536;45.488;12.238;2022-07-23T13:46:09;41.10;33.70
38788;DHT22;24536;45.488;12.238;2022-07-23T13:48:35;41.00;34.30
38788;DHT22;24536;45.488;12.238;2022-07-23T13:51:01;41.00;32.30
38788;DHT22;24536;45.488;12.238;2022-07-23T13:53:27;40.90;33.20
38788;DHT22;24536;45.488;12.238;2022-07-23T13:55:53;41.00;33.30
38788;DHT22;24536;45.488;12.238;2022-07-23T13:58:20;40.90;33.10
38788;DHT22;24536;45.488;12.238;2022-07-23T14:00:51;41.00;34.00
38788;DHT22;24536;45.488;12.238;2022-07-23T14:03:18;40.90;33.10
38788;DHT22;24536;45.488;12.238;2022-07-23T14:05:44;40.80;33.50
38788;DHT22;24536;45.488;12.238;2022-07-23T14:08:10;40.80;33.00
38788;DHT22;24536;45.488;12.238;2022-07-23T14:10:36;40.80;33.10
38788;DHT22;24536;45.488;12.238;2022-07-23T14:13:02;40.80;34.00
38788;DHT22;24536;45.488;12.238;2022-07-23T14:15:30;40.70;33.50
38788;DHT22;24536;45.488;12.238;2022-07-23T14:17:56;40.70;33.30
38788;DHT22;24536;45.488;12.238;2022-07-23T14:20:22;40.70;33.30
38788;DHT22;24536;45.488;12.238;2022-07-23T14:22:48;40.70;33.10
38788;DHT22;24536;45.488;12.238;2022-07-23T14:25:16;40.70;33.60
38788;DHT22;24536;45.488;12.238;2022-07-23T14:27:42;40.70;34.30
38788;DHT22;24536;45.488;12.238;2022-07-23T14:30:09;40.70;34.80
38788;DHT22;24536;45.488;12.238;2022-07-23T14:32:36;40.70;34.80
38788;DHT22;24536;45.488;12.238;2022-07-23T14:35:03;40.60;34.90
38788;DHT22;24536;45.488;12.238;2022-07-23T14:37:29;40.50;35.30
38788;DHT22;24536;45.488;12.238;2022-07-23T14:39:55;40.40;35.20
38788;DHT22;24536;45.488;12.238;2022-07-23T14:42:20;40.30;35.50
38788;DHT22;24536;45.488;12.238;2022-07-23T14:44:46;40.10;35.60
38788;DHT22;24536;45.488;12.238;2022-07-23T14:47:12;40.00;35.50
38788;DHT22;24536;45.488;12.238;2022-07-23T14:49:38;39.90;36.20
38788;DHT22;24536;45.488;12.238;2022-07-23T14:52:04;39.80;35.60
38788;DHT22;24536;45.488;12.238;2022-07-23T14:54:30;39.70;35.50
38788;DHT22;24536;45.488;12.238;2022-07-23T14:56:57;39.60;36.00
38788;DHT22;24536;45.488;12.238;2022-07-23T14:59:36;39.40;36.70
38788;DHT22;24536;45.488;12.238;2022-07-23T15:02:02;39.30;37.00
38788;DHT22;24536;45.488;12.238;2022-07-23T15:04:29;39.20;37.40
38788;DHT22;24536;45.488;12.238;2022-07-23T15:06:55;39.00;37.60
38788;DHT22;24536;45.488;12.238;2022-07-23T15:09:20;38.90;37.80
38788;DHT22;24536;45.488;12.238;2022-07-23T15:11:46;38.70;37.80
38788;DHT22;24536;45.488;12.238;2022-07-23T15:14:12;38.60;37.90
38788;DHT22;24536;45.488;12.238;2022-07-23T15:16:38;38.50;37.50
38788;DHT22;24536;45.488;12.238;2022-07-23T15:19:04;38.40;37.60
38788;DHT22;24536;45.488;12.238;2022-07-23T15:21:31;38.30;38.40
38788;DHT22;24536;45.488;12.238;2022-07-23T15:23:57;38.20;38.80
38788;DHT22;24536;45.488;12.238;2022-07-23T15:26:28;38.10;38.90
38788;DHT22;24536;45.488;12.238;2022-07-23T15:29:06;38.10;38.90
38788;DHT22;24536;45.488;12.238;2022-07-23T15:31:33;38.00;38.50
38788;DHT22;24536;45.488;12.238;2022-07-23T15:33:58;37.80;38.50
38788;DHT22;24536;45.488;12.238;2022-07-23T15:36:24;37.70;38.20
38788;DHT22;24536;45.488;12.238;2022-07-23T15:38:50;37.60;37.50
38788;DHT22;24536;45.488;12.238;2022-07-23T15:41:17;37.50;36.60
38788;DHT22;24536;45.488;12.238;2022-07-23T15:43:43;37.40;36.20
38788;DHT22;24536;45.488;12.238;2022-07-23T15:46:09;37.30;36.20
38788;DHT22;24536;45.488;12.238;2022-07-23T15:48:36;37.30;36.00
38788;DHT22;24536;45.488;12.238;2022-07-23T15:51:03;37.20;36.50
38788;DHT22;24536;45.488;12.238;2022-07-23T15:53:28;37.20;38.00
38788;DHT22;24536;45.488;12.238;2022-07-23T15:55:54;37.20;39.40
38788;DHT22;24536;45.488;12.238;2022-07-23T15:58:21;37.10;38.90
38788;DHT22;24536;45.488;12.238;2022-07-23T16:00:46;37.00;39.20
38788;DHT22;24536;45.488;12.238;2022-07-23T16:03:13;37.00;38.90
38788;DHT22;24536;45.488;12.238;2022-07-23T16:05:41;36.90;38.60
38788;DHT22;24536;45.488;12.238;2022-07-23T16:08:06;36.80;38.30